East Brookfield, Vermont
Current Conditions -  °F | °C
As of 7:59 AM on Thursday 23 Oct 2014 (Local Time) from KMPV Reporting Station
Overcast Overcast  
Wind Chill: 37°   Ceiling: 1400
Heat Index: 43°   Visibility: 10mi
Dew Point: 39°   Wind: 10mph
Humidity: 86%   Direction: 350°N
Pressure: 29.95"   Gusts: NA
Location:  43.9542°N, 72.5457°W
Report Text: KMPV 231159Z AUTO 35009KT 10SM OVC014 06/04 A2995 RMK AO2 T00610039
Loading
Personal Weather Stations






























Interactive Weather Map
Tropical Storm Tracking
New forecast layout! Learn more

10-Day Weather Forecast

Advertisements
Track Severe Weather on mobile